Time;durP1;ratioP1;P1;durP2;ratioP2;P2;SDS_P1;SDS_P2;PMS_P1;PMS_P2;Temp;Humidity;BMP_temperature;BMP_pressure;BME280_temperature;BME280_humidity;BME280_pressure;Samples;Min_cycle;Max_cycle;Signal;HPM_P1;HPM_P2
2022/05/22 00:00:25;;;;;;;;;;;11.20;1.00;;;;;;5069093;28;19912;-84
2022/05/22 00:02:57;;;;;;;;;;;11.10;1.00;;;;;;5058141;28;20376;-85
2022/05/22 00:05:27;;;;;;;;;;;11.10;1.00;;;;;;5055365;28;19916;-85
2022/05/22 00:07:57;;;;;;;;;;;11.10;1.00;;;;;;5087197;28;20566;-85
2022/05/22 00:10:56;;;;;;;;;;;11.00;1.00;;;;;;5092108;28;19915;-84
2022/05/22 00:16:57;;;;;;;;;;;11.00;1.00;;;;;;5054216;28;19920;-84
2022/05/22 00:25:57;;;;;;;;;;;10.90;1.00;;;;;;5067994;28;20064;-85
2022/05/22 00:31:26;;;;;;;;;;;10.80;1.00;;;;;;5058685;28;19963;-84
2022/05/22 00:33:57;;;;;;;;;;;10.80;1.00;;;;;;5053286;28;19917;-85
2022/05/22 00:36:27;;;;;;;;;;;10.70;1.00;;;;;;5092574;28;20011;-84
2022/05/22 00:38:57;;;;;;;;;;;10.70;1.00;;;;;;5086941;28;19912;-84
2022/05/22 00:41:57;;;;;;;;;;;10.70;1.00;;;;;;5086494;28;19913;-84
2022/05/22 00:44:23;;;;;;;;;;;10.70;1.00;;;;;;5053612;28;19913;-76
2022/05/22 00:47:03;;;;;;;;;;;10.60;1.00;;;;;;5053376;28;19913;-76
2022/05/22 00:49:33;;;;;;;;;;;10.60;1.00;;;;;;5054205;28;19967;-76
2022/05/22 00:52:09;;;;;;;;;;;10.60;1.00;;;;;;5062718;28;20582;-77
2022/05/22 00:54:40;;;;;;;;;;;10.60;1.00;;;;;;5065998;28;19921;-76
2022/05/22 00:57:19;;;;;;;;;;;10.50;1.00;;;;;;5053950;28;19909;-76
2022/05/22 01:00:07;;;;;;;;;;;10.50;1.00;;;;;;5053995;28;19920;-77
2022/05/22 01:03:26;;;;;;;;;;;10.50;1.00;;;;;;5052763;28;19916;-76
2022/05/22 01:05:27;;;;;;;;;;;10.40;1.00;;;;;;5065378;28;20314;-77
2022/05/22 01:08:00;;;;;;;;;;;10.50;1.00;;;;;;5062870;28;19940;-76
2022/05/22 01:10:42;;;;;;;;;;;10.40;1.00;;;;;;5057437;28;19908;-76
2022/05/22 01:13:09;;;;;;;;;;;10.40;1.00;;;;;;5067283;28;19913;-76
2022/05/22 01:22:17;;;;;;;;;;;10.30;1.00;;;;;;5057534;28;19920;-84
2022/05/22 01:24:57;;;;;;;;;;;10.30;1.00;;;;;;5051698;28;20003;-84
2022/05/22 01:27:23;;;;;;;;;;;10.30;1.00;;;;;;5024242;28;19964;-84
2022/05/22 01:29:49;;;;;;;;;;;10.20;1.00;;;;;;5048651;28;19917;-84
2022/05/22 01:32:14;;;;;;;;;;;10.20;1.00;;;;;;5034615;28;19917;-84
2022/05/22 01:34:40;;;;;;;;;;;10.20;1.00;;;;;;5022689;28;19913;-84
2022/05/22 01:37:06;;;;;;;;;;;10.20;1.00;;;;;;5036950;28;19913;-84
2022/05/22 01:39:31;;;;;;;;;;;10.30;1.00;;;;;;5054516;28;19909;-84
2022/05/22 01:41:57;;;;;;;;;;;10.20;1.00;;;;;;5043393;28;19914;-84
2022/05/22 01:44:22;;;;;;;;;;;10.20;1.00;;;;;;5021923;28;19944;-84
2022/05/22 01:46:48;;;;;;;;;;;10.10;1.00;;;;;;5037211;28;19954;-84
2022/05/22 01:49:14;;;;;;;;;;;10.20;1.00;;;;;;5024282;28;19909;-84
2022/05/22 01:51:41;;;;;;;;;;;10.10;1.00;;;;;;5037763;28;19909;-84
2022/05/22 01:54:07;;;;;;;;;;;10.20;1.00;;;;;;5033093;28;19913;-84
2022/05/22 01:56:33;;;;;;;;;;;10.30;1.00;;;;;;5028528;28;20383;-84
2022/05/22 01:58:59;;;;;;;;;;;10.40;1.00;;;;;;5053238;28;19912;-84
2022/05/22 02:01:27;;;;;;;;;;;10.50;1.00;;;;;;5065655;28;19924;-84
2022/05/22 02:03:52;;;;;;;;;;;10.50;1.00;;;;;;5055259;28;20268;-84
2022/05/22 02:06:18;;;;;;;;;;;10.60;1.00;;;;;;5054718;28;19913;-84
2022/05/22 02:08:43;;;;;;;;;;;10.70;1.00;;;;;;5088834;28;19909;-84
2022/05/22 02:11:27;;;;;;;;;;;10.70;1.00;;;;;;5059151;28;19935;-84
2022/05/22 02:13:57;;;;;;;;;;;10.80;1.00;;;;;;5061692;28;19919;-84
2022/05/22 02:16:22;;;;;;;;;;;10.90;1.00;;;;;;5102972;28;19962;-84
2022/05/22 02:18:48;;;;;;;;;;;10.90;1.00;;;;;;5057184;28;19912;-84
2022/05/22 02:21:13;;;;;;;;;;;11.00;1.00;;;;;;5087465;28;19968;-84
2022/05/22 02:23:39;;;;;;;;;;;11.00;1.00;;;;;;5061727;28;19947;-84
2022/05/22 02:26:08;;;;;;;;;;;11.00;1.00;;;;;;5061030;28;20007;-84
2022/05/22 02:28:34;;;;;;;;;;;11.10;1.00;;;;;;5087933;28;19923;-84
2022/05/22 02:31:01;;;;;;;;;;;11.10;1.00;;;;;;5089319;28;19946;-84
2022/05/22 02:33:27;;;;;;;;;;;11.20;1.00;;;;;;5064933;28;19916;-84
2022/05/22 02:35:52;;;;;;;;;;;11.20;1.00;;;;;;5060263;28;19959;-84
2022/05/22 02:38:18;;;;;;;;;;;11.20;1.00;;;;;;5095365;28;20256;-84
2022/05/22 02:40:44;;;;;;;;;;;11.20;1.00;;;;;;5074621;28;19995;-84
2022/05/22 02:43:09;;;;;;;;;;;11.10;1.00;;;;;;5062785;28;20064;-84
2022/05/22 02:45:36;;;;;;;;;;;11.10;1.00;;;;;;5089096;28;20249;-77
2022/05/22 02:48:02;;;;;;;;;;;11.00;1.00;;;;;;5066390;28;19918;-76
2022/05/22 02:50:28;;;;;;;;;;;11.00;1.00;;;;;;5074840;28;20290;-77
2022/05/22 02:52:54;;;;;;;;;;;10.90;1.00;;;;;;5067450;28;19917;-77
2022/05/22 02:55:19;;;;;;;;;;;10.90;1.00;;;;;;5073596;28;20382;-77
2022/05/22 02:57:45;;;;;;;;;;;10.80;1.00;;;;;;5073709;28;20355;-77
2022/05/22 03:00:13;;;;;;;;;;;10.80;1.00;;;;;;5067949;28;20367;-77
2022/05/22 03:02:39;;;;;;;;;;;10.80;1.00;;;;;;5062474;28;19942;-77
2022/05/22 03:05:04;;;;;;;;;;;10.80;1.00;;;;;;5073168;28;19952;-77
2022/05/22 03:07:30;;;;;;;;;;;10.80;1.00;;;;;;5054581;28;19920;-77
2022/05/22 03:09:55;;;;;;;;;;;10.80;1.00;;;;;;5067470;28;19909;-77
2022/05/22 03:12:22;;;;;;;;;;;10.80;1.00;;;;;;5063463;28;20287;-77
2022/05/22 03:14:53;;;;;;;;;;;10.90;1.00;;;;;;5070637;28;19917;-77
2022/05/22 03:17:18;;;;;;;;;;;10.90;1.00;;;;;;5061596;28;19919;-77
2022/05/22 03:19:44;;;;;;;;;;;11.00;1.00;;;;;;5062508;28;19912;-77
2022/05/22 03:22:10;;;;;;;;;;;10.90;1.00;;;;;;5074113;28;19908;-77
2022/05/22 03:24:36;;;;;;;;;;;10.80;1.00;;;;;;5064014;28;19912;-77
2022/05/22 03:27:03;;;;;;;;;;;10.80;1.00;;;;;;5073928;28;19908;-76
2022/05/22 03:29:29;;;;;;;;;;;10.80;1.00;;;;;;5038376;28;19927;-76
2022/05/22 03:31:54;;;;;;;;;;;10.70;1.00;;;;;;5046051;28;19913;-84
2022/05/22 03:34:20;;;;;;;;;;;10.80;1.00;;;;;;5040210;28;20364;-84
2022/05/22 03:36:45;;;;;;;;;;;10.80;1.00;;;;;;5034688;28;19913;-85
2022/05/22 03:39:11;;;;;;;;;;;10.70;1.00;;;;;;5016709;28;19913;-84
2022/05/22 03:41:37;;;;;;;;;;;10.70;1.00;;;;;;5046412;28;19913;-84
2022/05/22 03:44:02;;;;;;;;;;;10.70;1.00;;;;;;5036387;28;20004;-83
2022/05/22 03:46:33;;;;;;;;;;;10.70;1.00;;;;;;5046637;28;19967;-84
2022/05/22 03:48:59;;;;;;;;;;;10.70;1.00;;;;;;5043560;28;19913;-84
2022/05/22 03:51:24;;;;;;;;;;;10.80;1.00;;;;;;5034279;28;19963;-84
2022/05/22 03:53:50;;;;;;;;;;;10.80;1.00;;;;;;5048940;28;19917;-84
2022/05/22 03:56:16;;;;;;;;;;;10.80;1.00;;;;;;5054382;28;19916;-84
2022/05/22 03:58:42;;;;;;;;;;;10.80;1.00;;;;;;5040670;28;19913;-84
2022/05/22 04:01:07;;;;;;;;;;;10.90;1.00;;;;;;5054860;28;19959;-78
2022/05/22 04:03:36;;;;;;;;;;;10.90;1.00;;;;;;5050603;28;19920;-77
2022/05/22 04:06:03;;;;;;;;;;;11.00;1.00;;;;;;5053401;28;19913;-78
2022/05/22 04:08:29;;;;;;;;;;;11.00;1.00;;;;;;5036812;28;19913;-77
2022/05/22 04:10:54;;;;;;;;;;;11.00;1.00;;;;;;5053606;28;19916;-77
2022/05/22 04:13:20;;;;;;;;;;;11.00;1.00;;;;;;5044780;28;20309;-77
2022/05/22 04:15:46;;;;;;;;;;;11.10;1.00;;;;;;5053609;28;19909;-77
2022/05/22 04:18:14;;;;;;;;;;;11.10;1.00;;;;;;5048800;28;19913;-77
2022/05/22 04:20:40;;;;;;;;;;;11.10;1.00;;;;;;5050812;28;20011;-78
2022/05/22 04:25:57;;;;;;;;;;;11.20;1.00;;;;;;5053672;28;20370;-77
2022/05/22 04:28:23;;;;;;;;;;;11.10;1.00;;;;;;5055136;28;19917;-76
2022/05/22 04:30:51;;;;;;;;;;;11.20;1.00;;;;;;5053167;28;19913;-77
2022/05/22 04:33:16;;;;;;;;;;;11.20;1.00;;;;;;5071262;28;19916;-77
2022/05/22 04:35:43;;;;;;;;;;;11.30;1.00;;;;;;5072569;28;20055;-77
2022/05/22 04:38:09;;;;;;;;;;;11.30;1.00;;;;;;5066380;28;20326;-77
2022/05/22 04:40:34;;;;;;;;;;;11.40;1.00;;;;;;5052946;28;19919;-78
2022/05/22 04:43:00;;;;;;;;;;;11.30;1.00;;;;;;5055480;28;20019;-78
2022/05/22 04:45:26;;;;;;;;;;;11.40;1.00;;;;;;5068456;28;20363;-78
2022/05/22 04:47:51;;;;;;;;;;;11.40;1.00;;;;;;5059784;28;19913;-78
2022/05/22 04:50:17;;;;;;;;;;;11.50;1.00;;;;;;5057507;28;20307;-78
2022/05/22 04:52:43;;;;;;;;;;;11.50;1.00;;;;;;5074471;28;19959;-77
2022/05/22 04:55:09;;;;;;;;;;;11.50;1.00;;;;;;5066162;28;19956;-77
2022/05/22 04:57:35;;;;;;;;;;;11.60;1.00;;;;;;5076119;28;19912;-78
2022/05/22 05:00:02;;;;;;;;;;;11.70;1.00;;;;;;5069792;28;20291;-77
2022/05/22 05:02:27;;;;;;;;;;;11.80;1.00;;;;;;5075121;28;19909;-78
2022/05/22 05:04:53;;;;;;;;;;;11.80;1.00;;;;;;5055720;28;19916;-77
2022/05/22 05:07:19;;;;;;;;;;;11.90;1.00;;;;;;5066777;28;19931;-77
2022/05/22 05:09:45;;;;;;;;;;;12.00;1.00;;;;;;5060460;28;20367;-78
2022/05/22 05:12:10;;;;;;;;;;;12.10;1.00;;;;;;5075298;28;20386;-77
2022/05/22 05:14:37;;;;;;;;;;;12.20;1.00;;;;;;5073071;28;19966;-78
2022/05/22 05:17:07;;;;;;;;;;;12.20;1.00;;;;;;5109368;28;19923;-78
2022/05/22 05:19:33;;;;;;;;;;;12.30;1.00;;;;;;5057657;28;19913;-77
2022/05/22 05:21:58;;;;;;;;;;;12.40;1.00;;;;;;5063559;28;19913;-74
2022/05/22 05:24:24;;;;;;;;;;;12.50;1.00;;;;;;5061982;28;20011;-73
2022/05/22 05:26:50;;;;;;;;;;;12.60;1.00;;;;;;5056194;28;19909;-73
2022/05/22 05:29:16;;;;;;;;;;;12.70;1.00;;;;;;5057102;28;19916;-73
2022/05/22 05:31:42;;;;;;;;;;;12.80;1.00;;;;;;5074919;28;20276;-71
2022/05/22 05:34:07;;;;;;;;;;;12.90;1.00;;;;;;5061249;28;19924;-71
2022/05/22 05:36:33;;;;;;;;;;;12.90;1.00;;;;;;5055767;28;19913;-71
2022/05/22 05:38:58;;;;;;;;;;;13.10;1.00;;;;;;5056252;28;19909;-71
2022/05/22 05:41:24;;;;;;;;;;;13.10;1.00;;;;;;5055787;28;19948;-71
2022/05/22 05:43:49;;;;;;;;;;;13.20;1.00;;;;;;5055439;28;19939;-71
2022/05/22 05:46:15;;;;;;;;;;;13.30;1.00;;;;;;5058854;28;20368;-71
2022/05/22 05:48:41;;;;;;;;;;;13.40;1.00;;;;;;5061422;28;20127;-73
2022/05/22 05:51:06;;;;;;;;;;;13.50;1.00;;;;;;5075859;28;19951;-74
2022/05/22 05:53:32;;;;;;;;;;;13.70;1.00;;;;;;5074171;28;19995;-73
2022/05/22 05:56:01;;;;;;;;;;;13.70;1.00;;;;;;5061223;28;20307;-73
2022/05/22 05:58:26;;;;;;;;;;;13.80;1.00;;;;;;5075457;28;20249;-73
2022/05/22 06:00:51;;;;;;;;;;;13.90;1.00;;;;;;5070054;28;19916;-73
2022/05/22 06:03:17;;;;;;;;;;;14.00;1.00;;;;;;5070060;28;19962;-73
2022/05/22 06:05:42;;;;;;;;;;;14.10;1.00;;;;;;5072540;28;19912;-73
2022/05/22 06:08:08;;;;;;;;;;;14.30;1.00;;;;;;5062640;28;19909;-73
2022/05/22 06:10:36;;;;;;;;;;;14.40;1.00;;;;;;5061983;28;19909;-73
2022/05/22 06:13:01;;;;;;;;;;;14.50;1.00;;;;;;5068278;28;19956;-73
2022/05/22 06:15:27;;;;;;;;;;;14.70;1.00;;;;;;5060292;28;19944;-73
2022/05/22 06:17:56;;;;;;;;;;;14.80;1.00;;;;;;5062543;28;19909;-73
2022/05/22 06:20:22;;;;;;;;;;;14.90;1.00;;;;;;5062393;28;20371;-73
2022/05/22 06:22:47;;;;;;;;;;;15.00;1.00;;;;;;5057834;28;19913;-73
2022/05/22 06:25:14;;;;;;;;;;;15.20;1.00;;;;;;5068030;28;20390;-73
2022/05/22 06:27:40;;;;;;;;;;;15.50;1.00;;;;;;5054717;28;20356;-73
2022/05/22 06:30:06;;;;;;;;;;;15.50;1.00;;;;;;5061726;28;19970;-73
2022/05/22 06:32:32;;;;;;;;;;;15.60;1.00;;;;;;5087224;28;19920;-71
2022/05/22 06:34:58;;;;;;;;;;;15.80;1.00;;;;;;5051976;28;20291;-72
2022/05/22 06:37:24;;;;;;;;;;;15.90;1.00;;;;;;5074734;28;19909;-71
2022/05/22 06:39:50;;;;;;;;;;;16.10;1.00;;;;;;5056489;28;19913;-71
2022/05/22 06:42:28;;;;;;;;;;;16.20;1.00;;;;;;5054601;28;19909;-84
2022/05/22 06:45:07;;;;;;;;;;;16.40;99.90;;;;;;5071976;28;20003;-84
2022/05/22 06:47:34;;;;;;;;;;;16.50;99.90;;;;;;5060996;28;19912;-72
2022/05/22 06:50:04;;;;;;;;;;;16.70;99.90;;;;;;5060212;28;19908;-72
2022/05/22 06:52:30;;;;;;;;;;;16.80;99.90;;;;;;5074321;28;19999;-73
2022/05/22 06:54:56;;;;;;;;;;;16.90;99.90;;;;;;5074514;28;19913;-73
2022/05/22 06:57:22;;;;;;;;;;;17.00;99.90;;;;;;5060791;28;19924;-73
2022/05/22 06:59:48;;;;;;;;;;;17.20;99.90;;;;;;5058937;28;19920;-73
2022/05/22 07:02:14;;;;;;;;;;;17.40;99.90;;;;;;5053735;28;19928;-73
2022/05/22 07:04:40;;;;;;;;;;;17.50;99.90;;;;;;5054338;28;19924;-73
2022/05/22 07:07:05;;;;;;;;;;;17.70;99.90;;;;;;5050954;28;19909;-72
2022/05/22 07:09:31;;;;;;;;;;;17.80;99.90;;;;;;5053920;28;20004;-73
2022/05/22 07:11:59;;;;;;;;;;;17.90;99.90;;;;;;5053703;28;20268;-72
2022/05/22 07:14:25;;;;;;;;;;;18.00;99.90;;;;;;5055062;28;19923;-73
2022/05/22 07:16:51;;;;;;;;;;;18.10;99.90;;;;;;5054384;28;19912;-73
2022/05/22 07:19:18;;;;;;;;;;;18.20;99.90;;;;;;5057678;28;19913;-71
2022/05/22 07:21:44;;;;;;;;;;;18.30;99.90;;;;;;5050584;28;20248;-71
2022/05/22 07:24:10;;;;;;;;;;;18.40;99.90;;;;;;5070429;28;19912;-71
2022/05/22 07:26:36;;;;;;;;;;;18.50;99.90;;;;;;5074589;28;19912;-72
2022/05/22 07:29:01;;;;;;;;;;;18.60;99.90;;;;;;5074596;28;19916;-73
2022/05/22 07:31:28;;;;;;;;;;;18.70;99.90;;;;;;5061768;28;19913;-72
2022/05/22 07:33:54;;;;;;;;;;;18.70;99.90;;;;;;5074490;28;19936;-72
2022/05/22 07:36:21;;;;;;;;;;;18.80;99.90;;;;;;5061690;28;19958;-72
2022/05/22 07:38:47;;;;;;;;;;;18.90;99.90;;;;;;5064605;28;19908;-72
2022/05/22 07:41:13;;;;;;;;;;;19.10;99.90;;;;;;5061348;28;19944;-72
2022/05/22 07:43:39;;;;;;;;;;;19.20;99.90;;;;;;5053993;28;19986;-72
2022/05/22 07:46:12;;;;;;;;;;;19.20;99.90;;;;;;5060568;28;19960;-72
2022/05/22 07:48:38;;;;;;;;;;;19.30;99.90;;;;;;5060378;28;20001;-73
2022/05/22 07:51:15;;;;;;;;;;;19.30;99.90;;;;;;5054176;28;19952;-74
2022/05/22 07:53:45;;;;;;;;;;;19.40;99.90;;;;;;5056089;28;20161;-74
2022/05/22 07:56:22;;;;;;;;;;;19.50;99.90;;;;;;5054544;28;20001;-74
2022/05/22 07:58:57;;;;;;;;;;;19.70;99.90;;;;;;5057592;28;19914;-82
2022/05/22 08:01:27;;;;;;;;;;;19.80;99.90;;;;;;5074285;28;19947;-82
2022/05/22 08:04:03;;;;;;;;;;;20.00;99.90;;;;;;5074348;28;19912;-81
2022/05/22 08:06:39;;;;;;;;;;;20.20;99.90;;;;;;5061071;28;19913;-78
2022/05/22 08:09:15;;;;;;;;;;;20.20;99.90;;;;;;5097473;28;19913;-78
2022/05/22 08:11:45;;;;;;;;;;;20.40;99.90;;;;;;5067647;28;19995;-78
2022/05/22 08:14:21;;;;;;;;;;;20.50;99.90;;;;;;5086045;28;20429;-79
2022/05/22 08:16:46;;;;;;;;;;;20.60;99.90;;;;;;5053398;28;19909;-79
2022/05/22 08:19:12;;;;;;;;;;;20.70;99.90;;;;;;5064805;28;19995;-79
2022/05/22 08:21:38;;;;;;;;;;;20.90;99.90;;;;;;5063622;28;19917;-79
2022/05/22 08:24:04;;;;;;;;;;;21.00;99.90;;;;;;5098723;28;20332;-80
2022/05/22 08:26:33;;;;;;;;;;;21.00;99.90;;;;;;5053184;28;19958;-84
2022/05/22 08:29:09;;;;;;;;;;;21.10;99.90;;;;;;5053924;28;19963;-83
2022/05/22 08:31:51;;;;;;;;;;;21.20;99.90;;;;;;5061305;28;19959;-83
2022/05/22 08:34:21;;;;;;;;;;;21.20;99.90;;;;;;5060543;28;19919;-84
2022/05/22 08:36:48;;;;;;;;;;;21.30;99.90;;;;;;5064410;28;19995;-83
2022/05/22 08:39:21;;;;;;;;;;;21.30;99.90;;;;;;5058299;28;19913;-83
2022/05/22 08:41:48;;;;;;;;;;;21.30;99.90;;;;;;5053990;28;19916;-83
2022/05/22 08:44:15;;;;;;;;;;;21.30;99.90;;;;;;5072060;28;19908;-83
2022/05/22 08:47:03;;;;;;;;;;;21.40;99.90;;;;;;5061049;28;19915;-83
2022/05/22 09:04:39;;;;;;;;;;;21.90;99.90;;;;;;5051505;28;19919;-77
2022/05/22 09:07:17;;;;;;;;;;;22.00;99.90;;;;;;5053156;28;19935;-77
2022/05/22 09:09:48;;;;;;;;;;;22.10;99.90;;;;;;5047978;28;19908;-78
2022/05/22 09:12:27;;;;;;;;;;;22.20;99.90;;;;;;5058364;28;19909;-78
2022/05/22 09:15:07;;;;;;;;;;;22.30;99.90;;;;;;5051913;28;19928;-78
2022/05/22 09:17:37;;;;;;;;;;;22.20;99.90;;;;;;5057402;28;19950;-77
2022/05/22 09:20:26;;;;;;;;;;;22.30;99.90;;;;;;5098394;28;20462;-77
2022/05/22 09:23:01;;;;;;;;;;;22.50;99.90;;;;;;5052387;28;19919;-77
2022/05/22 09:25:33;;;;;;;;;;;22.60;99.90;;;;;;5057732;28;20318;-77
2022/05/22 09:28:20;;;;;;;;;;;22.50;99.90;;;;;;5066467;28;19917;-77
2022/05/22 09:30:45;;;;;;;;;;;22.60;99.90;;;;;;5056300;28;20368;-81
2022/05/22 09:33:10;;;;;;;;;;;22.80;99.90;;;;;;5057182;28;19919;-79
2022/05/22 09:35:42;;;;;;;;;;;22.80;99.90;;;;;;5076394;28;20274;-77
2022/05/22 09:38:16;;;;;;;;;;;22.90;99.90;;;;;;5075655;28;19915;-78
2022/05/22 09:40:45;;;;;;;;;;;23.10;99.90;;;;;;5073497;28;19909;-76
2022/05/22 09:43:18;;;;;;;;;;;23.30;99.90;;;;;;5055514;28;20394;-76
2022/05/22 09:45:51;;;;;;;;;;;23.40;99.90;;;;;;5057591;28;19909;-77
2022/05/22 09:48:28;;;;;;;;;;;23.50;99.90;;;;;;5072260;28;20365;-77
2022/05/22 09:50:54;;;;;;;;;;;23.80;99.90;;;;;;5056217;28;20267;-78
2022/05/22 09:53:43;;;;;;;;;;;23.90;99.90;;;;;;5074478;28;19999;-78
2022/05/22 09:56:27;;;;;;;;;;;23.90;99.90;;;;;;5053583;28;20368;-78
2022/05/22 09:59:11;;;;;;;;;;;24.10;99.90;;;;;;5053266;28;19916;-78
2022/05/22 10:01:38;;;;;;;;;;;24.20;99.90;;;;;;5053561;28;19909;-78
2022/05/22 10:04:21;;;;;;;;;;;24.20;99.90;;;;;;5053368;28;20052;-78
2022/05/22 10:06:50;;;;;;;;;;;24.30;99.90;;;;;;5045948;28;19919;-78
2022/05/22 10:09:15;;;;;;;;;;;24.30;99.90;;;;;;5044976;28;19917;-78
2022/05/22 10:11:49;;;;;;;;;;;24.50;99.90;;;;;;5038866;28;19936;-78
2022/05/22 10:14:21;;;;;;;;;;;24.60;99.90;;;;;;5045031;28;19916;-78
2022/05/22 10:16:53;;;;;;;;;;;24.70;99.90;;;;;;5053271;28;20319;-78
2022/05/22 10:19:30;;;;;;;;;;;24.80;99.90;;;;;;5039210;28;19919;-79
2022/05/22 10:22:01;;;;;;;;;;;24.90;99.90;;;;;;5031444;28;19917;-78
2022/05/22 10:24:53;;;;;;;;;;;25.00;99.90;;;;;;5050900;28;19909;-78
2022/05/22 10:27:37;;;;;;;;;;;25.10;99.90;;;;;;5038184;28;19967;-78
2022/05/22 10:30:09;;;;;;;;;;;25.20;99.90;;;;;;5031076;28;19924;-78
2022/05/22 10:32:44;;;;;;;;;;;25.10;99.90;;;;;;5056344;28;20013;-78
2022/05/22 10:35:29;;;;;;;;;;;25.10;99.90;;;;;;5075430;28;19999;-77
2022/05/22 10:37:59;;;;;;;;;;;24.70;99.90;;;;;;5075367;28;20019;-78
2022/05/22 10:40:25;;;;;;;;;;;24.60;99.90;;;;;;5074806;28;19928;-78
2022/05/22 10:42:56;;;;;;;;;;;24.90;99.90;;;;;;5073380;28;19908;-77
2022/05/22 10:45:32;;;;;;;;;;;25.00;99.90;;;;;;5074865;28;20367;-78
2022/05/22 10:48:21;;;;;;;;;;;25.10;99.90;;;;;;5074880;28;20393;-78
2022/05/22 10:51:13;;;;;;;;;;;25.20;99.90;;;;;;5075146;28;19915;-77
2022/05/22 10:53:40;;;;;;;;;;;25.30;99.90;;;;;;5099566;28;19917;-77
2022/05/22 10:56:08;;;;;;;;;;;25.50;99.90;;;;;;5074826;28;19966;-77
2022/05/22 10:58:35;;;;;;;;;;;25.50;99.90;;;;;;5073087;28;19909;-77
2022/05/22 11:01:02;;;;;;;;;;;25.60;99.90;;;;;;5064649;28;20253;-81
2022/05/22 11:03:30;;;;;;;;;;;25.60;99.90;;;;;;5062753;28;19908;-81
2022/05/22 11:05:57;;;;;;;;;;;25.70;99.90;;;;;;5074822;28;20264;-81
2022/05/22 11:08:30;;;;;;;;;;;25.80;99.90;;;;;;5088971;28;19909;-81
2022/05/22 11:11:00;;;;;;;;;;;25.80;99.90;;;;;;5067498;28;19916;-81
2022/05/22 11:13:26;;;;;;;;;;;25.80;99.90;;;;;;5063148;28;19912;-81
2022/05/22 11:15:52;;;;;;;;;;;25.90;99.90;;;;;;5073900;28;19936;-82
2022/05/22 11:18:22;;;;;;;;;;;26.00;99.90;;;;;;5067294;28;19909;-78
2022/05/22 11:20:54;;;;;;;;;;;26.10;99.90;;;;;;5063038;28;19919;-80
2022/05/22 11:23:39;;;;;;;;;;;26.20;99.90;;;;;;5047208;28;19913;-81
2022/05/22 11:26:12;;;;;;;;;;;26.30;99.90;;;;;;5057440;28;19918;-76
2022/05/22 11:28:41;;;;;;;;;;;26.50;99.90;;;;;;5067867;28;19924;-82
2022/05/22 11:31:21;;;;;;;;;;;26.60;99.90;;;;;;5047072;28;19966;-80
2022/05/22 11:34:06;;;;;;;;;;;26.50;99.90;;;;;;5053133;28;19979;-80
2022/05/22 11:36:50;;;;;;;;;;;26.50;99.90;;;;;;5047364;28;19913;-80
2022/05/22 11:39:22;;;;;;;;;;;26.60;99.90;;;;;;5059878;28;19917;-78
2022/05/22 11:41:49;;;;;;;;;;;26.60;99.90;;;;;;5060852;28;19959;-78
2022/05/22 11:44:27;;;;;;;;;;;26.50;99.90;;;;;;5073520;28;20005;-81
2022/05/22 11:47:06;;;;;;;;;;;26.60;99.90;;;;;;5073643;28;19954;-81
2022/05/22 11:49:44;;;;;;;;;;;26.60;99.90;;;;;;5073527;28;19908;-80
2022/05/22 11:55:31;;;;;;;;;;;26.50;99.90;;;;;;5073340;28;19961;-78
2022/05/22 11:57:59;;;;;;;;;;;26.50;99.90;;;;;;5073399;28;19908;-78
2022/05/22 12:00:31;;;;;;;;;;;26.50;99.90;;;;;;5073459;28;19912;-79
2022/05/22 12:03:22;;;;;;;;;;;26.50;99.90;;;;;;5106080;28;19908;-79
2022/05/22 12:05:56;;;;;;;;;;;26.50;99.90;;;;;;5073193;28;20279;-79
2022/05/22 12:08:21;;;;;;;;;;;26.60;99.90;;;;;;5056057;28;19913;-81
2022/05/22 12:10:58;;;;;;;;;;;26.70;99.90;;;;;;5055230;28;20030;-80
2022/05/22 12:13:34;;;;;;;;;;;26.60;99.90;;;;;;5067026;28;20267;-81
2022/05/22 12:16:08;;;;;;;;;;;26.70;99.90;;;;;;5066436;28;19909;-81
2022/05/22 12:18:52;;;;;;;;;;;26.80;99.90;;;;;;5054838;28;19962;-80
2022/05/22 12:21:36;;;;;;;;;;;26.80;99.90;;;;;;5058807;28;19908;-81
2022/05/22 12:24:05;;;;;;;;;;;26.90;99.90;;;;;;5049979;28;19916;-81
2022/05/22 12:26:31;;;;;;;;;;;27.00;99.90;;;;;;5101339;28;20265;-81
2022/05/22 12:29:13;;;;;;;;;;;27.00;99.90;;;;;;5071986;28;19967;-81
2022/05/22 12:31:46;;;;;;;;;;;27.00;99.90;;;;;;5055624;28;20390;-81
2022/05/22 12:34:14;;;;;;;;;;;27.20;99.90;;;;;;5072810;28;19913;-81
2022/05/22 12:36:47;;;;;;;;;;;27.00;99.90;;;;;;5073166;28;19991;-79
2022/05/22 12:39:14;;;;;;;;;;;26.70;99.90;;;;;;5060306;28;19948;-81
2022/05/22 12:41:44;;;;;;;;;;;26.70;99.90;;;;;;5046055;28;20018;-83
2022/05/22 12:44:11;;;;;;;;;;;26.50;99.90;;;;;;5060527;28;19913;-83
2022/05/22 12:46:37;;;;;;;;;;;26.50;99.90;;;;;;5048372;28;19958;-89
2022/05/22 12:49:08;;;;;;;;;;;26.50;99.90;;;;;;5053533;28;19917;-87
2022/05/22 12:51:36;;;;;;;;;;;26.50;99.90;;;;;;5052972;28;19916;-87
2022/05/22 12:54:21;;;;;;;;;;;26.60;99.90;;;;;;5054016;28;19920;-88
2022/05/22 12:56:47;;;;;;;;;;;26.70;99.90;;;;;;5064166;28;19915;-83
2022/05/22 12:59:18;;;;;;;;;;;26.90;99.90;;;;;;5056011;28;19913;-83
2022/05/22 13:01:45;;;;;;;;;;;27.10;99.90;;;;;;5061120;28;20364;-83
2022/05/22 13:04:31;;;;;;;;;;;27.10;99.90;;;;;;5070913;28;19962;-84
2022/05/22 13:07:12;;;;;;;;;;;27.00;99.90;;;;;;5064740;28;19916;-85
2022/05/22 13:09:40;;;;;;;;;;;27.10;99.90;;;;;;5074001;28;19909;-85
2022/05/22 13:12:09;;;;;;;;;;;27.10;99.90;;;;;;5077116;28;19936;-84
2022/05/22 13:14:40;;;;;;;;;;;26.90;99.90;;;;;;5076705;28;19919;-83
2022/05/22 13:17:10;;;;;;;;;;;26.80;99.90;;;;;;5059420;28;19917;-84
2022/05/22 13:19:46;;;;;;;;;;;26.90;99.90;;;;;;5061010;28;19917;-83
2022/05/22 13:22:24;;;;;;;;;;;27.00;99.90;;;;;;5076912;28;19908;-83
2022/05/22 13:24:50;;;;;;;;;;;27.00;99.90;;;;;;5074188;28;19909;-82
2022/05/22 13:27:22;;;;;;;;;;;27.10;99.90;;;;;;5076690;28;19940;-88
2022/05/22 13:30:05;;;;;;;;;;;27.20;99.90;;;;;;5062735;28;19927;-87
2022/05/22 13:32:34;;;;;;;;;;;27.30;99.90;;;;;;5055701;28;19920;-88
2022/05/22 13:35:01;;;;;;;;;;;27.40;99.90;;;;;;5075648;28;19952;-87
2022/05/22 13:37:30;;;;;;;;;;;27.50;99.90;;;;;;5073583;28;19916;-77
2022/05/22 13:39:58;;;;;;;;;;;27.40;99.90;;;;;;5061865;28;19916;-76
2022/05/22 13:42:27;;;;;;;;;;;27.20;99.90;;;;;;5075648;28;19913;-76
2022/05/22 13:45:01;;;;;;;;;;;27.10;99.90;;;;;;5076089;28;19995;-76
2022/05/22 13:47:35;;;;;;;;;;;27.20;99.90;;;;;;5075943;28;19908;-76
2022/05/22 13:52:57;;;;;;;;;;;27.40;99.90;;;;;;5060921;28;20295;-77
2022/05/22 13:55:25;;;;;;;;;;;27.40;99.90;;;;;;5101334;28;19913;-77
2022/05/22 13:57:58;;;;;;;;;;;27.50;99.90;;;;;;5066483;28;20389;-76
2022/05/22 14:00:29;;;;;;;;;;;27.60;99.90;;;;;;5062415;28;20003;-77
2022/05/22 14:03:01;;;;;;;;;;;27.70;99.90;;;;;;5055437;28;19920;-79
2022/05/22 14:05:36;;;;;;;;;;;27.90;99.90;;;;;;5072361;28;19955;-77
2022/05/22 14:08:09;;;;;;;;;;;27.90;99.90;;;;;;5092988;28;19909;-87
2022/05/22 14:10:36;;;;;;;;;;;27.90;99.90;;;;;;5050995;28;19973;-88
2022/05/22 14:13:18;;;;;;;;;;;27.90;99.90;;;;;;5075967;28;19908;-87
2022/05/22 14:15:52;;;;;;;;;;;28.00;99.90;;;;;;5065070;28;19940;-86
2022/05/22 14:18:19;;;;;;;;;;;28.20;99.90;;;;;;5060216;28;19909;-87
2022/05/22 14:20:46;;;;;;;;;;;28.40;99.90;;;;;;5076583;28;19978;-88
2022/05/22 14:23:11;;;;;;;;;;;28.50;99.90;;;;;;5058231;28;20026;-78
2022/05/22 14:25:39;;;;;;;;;;;28.50;99.90;;;;;;5056673;28;19930;-78
2022/05/22 14:28:06;;;;;;;;;;;28.70;99.90;;;;;;5072788;28;19917;-76
2022/05/22 14:30:32;;;;;;;;;;;28.80;99.90;;;;;;5062208;28;20055;-78
2022/05/22 14:33:05;;;;;;;;;;;28.70;99.90;;;;;;5071035;28;19908;-77
2022/05/22 14:35:31;;;;;;;;;;;28.60;99.90;;;;;;5067661;28;19916;-78
2022/05/22 14:37:58;;;;;;;;;;;28.70;99.90;;;;;;5068648;28;19920;-78
2022/05/22 14:40:27;;;;;;;;;;;28.90;99.90;;;;;;5055999;28;19908;-86
2022/05/22 14:42:54;;;;;;;;;;;29.10;99.90;;;;;;5055385;28;19909;-87
2022/05/22 14:45:24;;;;;;;;;;;29.20;99.90;;;;;;5069740;28;19908;-89
2022/05/22 14:47:50;;;;;;;;;;;29.30;99.90;;;;;;5069633;28;19916;-86
2022/05/22 14:50:16;;;;;;;;;;;29.30;99.90;;;;;;5063907;28;19908;-87
2022/05/22 14:52:46;;;;;;;;;;;29.40;99.90;;;;;;5066991;28;19916;-82
2022/05/22 14:55:23;;;;;;;;;;;29.30;99.90;;;;;;5068449;28;19923;-74
2022/05/22 14:58:19;;;;;;;;;;;29.40;99.90;;;;;;5064813;28;20271;-74
2022/05/22 15:00:49;;;;;;;;;;;29.50;99.90;;;;;;5052363;28;20362;-74
2022/05/22 15:03:22;;;;;;;;;;;29.50;99.90;;;;;;5041053;28;19909;-74
2022/05/22 15:05:52;;;;;;;;;;;29.40;99.90;;;;;;5051163;28;20397;-74
2022/05/22 15:08:22;;;;;;;;;;;29.50;99.90;;;;;;5047416;28;19991;-74
2022/05/22 15:10:48;;;;;;;;;;;29.80;99.90;;;;;;5026161;28;20506;-81
2022/05/22 15:13:19;;;;;;;;;;;30.30;99.90;;;;;;5049379;28;20011;-81
2022/05/22 15:15:45;;;;;;;;;;;30.70;99.90;;;;;;5052179;28;19912;-81
2022/05/22 15:19:48;;;;;;;;;;;31.30;99.90;;;;;;5051495;28;20275;-81
2022/05/22 15:21:10;;;;;;;;;;;31.60;99.90;;;;;;5046418;28;19932;-81
2022/05/22 15:26:22;;;;;;;;;;;31.90;99.90;;;;;;5046586;28;20021;-74